sensor_id;sensor_type;location;lat;lon;timestamp;pressure;altitude;pressure_sealevel;temperature;humidity
64632;BME280;58358;50.936;0.246;2024-03-29T00:02:23;97975.18;;;5.77;100.00
64632;BME280;58358;50.936;0.246;2024-03-29T00:04:49;97982.32;;;5.43;100.00
64632;BME280;58358;50.936;0.246;2024-03-29T00:07:15;97979.23;;;5.28;100.00
64632;BME280;58358;50.936;0.246;2024-03-29T00:09:41;97975.40;;;5.67;100.00
64632;BME280;58358;50.936;0.246;2024-03-29T00:12:07;97972.49;;;5.86;100.00
64632;BME280;58358;50.936;0.246;2024-03-29T00:14:32;97975.77;;;6.13;100.00
64632;BME280;58358;50.936;0.246;2024-03-29T00:16:58;97975.85;;;5.73;100.00
64632;BME280;58358;50.936;0.246;2024-03-29T00:19:23;97968.67;;;6.08;100.00
64632;BME280;58358;50.936;0.246;2024-03-29T00:21:48;97972.84;;;5.82;100.00
64632;BME280;58358;50.936;0.246;2024-03-29T00:24:13;97964.37;;;5.94;100.00
64632;BME280;58358;50.936;0.246;2024-03-29T00:26:39;97964.51;;;5.57;100.00
64632;BME280;58358;50.936;0.246;2024-03-29T00:29:05;97961.24;;;5.55;100.00
64632;BME280;58358;50.936;0.246;2024-03-29T00:31:31;97961.98;;;6.37;100.00
64632;BME280;58358;50.936;0.246;2024-03-29T00:33:57;97959.20;;;6.06;100.00
64632;BME280;58358;50.936;0.246;2024-03-29T00:36:22;97960.04;;;6.38;100.00
64632;BME280;58358;50.936;0.246;2024-03-29T00:38:48;97954.39;;;6.08;100.00
64632;BME280;58358;50.936;0.246;2024-03-29T00:41:13;97953.63;;;6.63;100.00
64632;BME280;58358;50.936;0.246;2024-03-29T00:43:39;97950.47;;;6.59;100.00
64632;BME280;58358;50.936;0.246;2024-03-29T00:46:04;97953.19;;;6.28;100.00
64632;BME280;58358;50.936;0.246;2024-03-29T00:48:29;97951.82;;;6.45;100.00
64632;BME280;58358;50.936;0.246;2024-03-29T00:50:55;97950.72;;;5.89;100.00
64632;BME280;58358;50.936;0.246;2024-03-29T00:53:21;97946.56;;;6.20;100.00
64632;BME280;58358;50.936;0.246;2024-03-29T00:55:47;97946.42;;;5.55;100.00
64632;BME280;58358;50.936;0.246;2024-03-29T00:58:12;97952.19;;;5.48;100.00
64632;BME280;58358;50.936;0.246;2024-03-29T01:00:38;97952.24;;;5.93;100.00
64632;BME280;58358;50.936;0.246;2024-03-29T01:03:04;97954.87;;;5.78;100.00
64632;BME280;58358;50.936;0.246;2024-03-29T01:05:29;97945.57;;;5.59;100.00
64632;BME280;58358;50.936;0.246;2024-03-29T01:07:55;97956.90;;;6.10;100.00
64632;BME280;58358;50.936;0.246;2024-03-29T01:10:21;97955.88;;;6.58;100.00
64632;BME280;58358;50.936;0.246;2024-03-29T01:12:46;97975.17;;;6.36;100.00
64632;BME280;58358;50.936;0.246;2024-03-29T01:15:12;97957.46;;;6.22;100.00
64632;BME280;58358;50.936;0.246;2024-03-29T01:17:38;97968.79;;;6.20;100.00
64632;BME280;58358;50.936;0.246;2024-03-29T01:20:05;97964.00;;;5.86;100.00
64632;BME280;58358;50.936;0.246;2024-03-29T01:22:29;97971.58;;;6.06;100.00
64632;BME280;58358;50.936;0.246;2024-03-29T01:24:55;97966.48;;;5.89;100.00
64632;BME280;58358;50.936;0.246;2024-03-29T01:27:21;97972.37;;;6.26;100.00
64632;BME280;58358;50.936;0.246;2024-03-29T01:29:47;97980.47;;;6.32;100.00
64632;BME280;58358;50.936;0.246;2024-03-29T01:32:12;97974.64;;;5.62;100.00
64632;BME280;58358;50.936;0.246;2024-03-29T01:34:38;97971.22;;;4.97;100.00
64632;BME280;58358;50.936;0.246;2024-03-29T01:37:04;97970.79;;;5.85;100.00
64632;BME280;58358;50.936;0.246;2024-03-29T01:39:30;97984.75;;;6.14;100.00
64632;BME280;58358;50.936;0.246;2024-03-29T01:41:56;98008.90;;;5.29;100.00
64632;BME280;58358;50.936;0.246;2024-03-29T01:44:22;98019.55;;;4.83;100.00
64632;BME280;58358;50.936;0.246;2024-03-29T01:46:48;98018.11;;;5.15;100.00
64632;BME280;58358;50.936;0.246;2024-03-29T01:49:13;98016.57;;;5.41;100.00
64632;BME280;58358;50.936;0.246;2024-03-29T01:51:40;98006.48;;;4.76;100.00
64632;BME280;58358;50.936;0.246;2024-03-29T01:54:05;98014.13;;;4.94;100.00
64632;BME280;58358;50.936;0.246;2024-03-29T01:56:31;98012.98;;;5.01;100.00
64632;BME280;58358;50.936;0.246;2024-03-29T01:58:58;98006.48;;;4.98;100.00
64632;BME280;58358;50.936;0.246;2024-03-29T02:01:22;98010.58;;;4.88;100.00
64632;BME280;58358;50.936;0.246;2024-03-29T02:03:48;98013.94;;;5.22;100.00
64632;BME280;58358;50.936;0.246;2024-03-29T02:06:14;98012.74;;;4.96;100.00
64632;BME280;58358;50.936;0.246;2024-03-29T02:08:40;98013.70;;;4.90;100.00
64632;BME280;58358;50.936;0.246;2024-03-29T02:11:06;98002.73;;;4.88;100.00
64632;BME280;58358;50.936;0.246;2024-03-29T02:13:31;98005.02;;;4.78;100.00
64632;BME280;58358;50.936;0.246;2024-03-29T02:15:57;97998.43;;;5.23;100.00
64632;BME280;58358;50.936;0.246;2024-03-29T02:18:23;97991.84;;;5.78;100.00
64632;BME280;58358;50.936;0.246;2024-03-29T02:20:49;97996.30;;;5.75;100.00
64632;BME280;58358;50.936;0.246;2024-03-29T02:23:18;98000.94;;;5.07;100.00
64632;BME280;58358;50.936;0.246;2024-03-29T02:25:40;98002.62;;;5.25;100.00
64632;BME280;58358;50.936;0.246;2024-03-29T02:28:06;98005.65;;;5.10;100.00
64632;BME280;58358;50.936;0.246;2024-03-29T02:30:32;98006.24;;;5.91;100.00
64632;BME280;58358;50.936;0.246;2024-03-29T02:32:58;97992.19;;;5.38;100.00
64632;BME280;58358;50.936;0.246;2024-03-29T02:35:23;97996.34;;;5.72;100.00
64632;BME280;58358;50.936;0.246;2024-03-29T02:37:50;97999.76;;;5.82;100.00
64632;BME280;58358;50.936;0.246;2024-03-29T02:40:15;97998.53;;;5.79;100.00
64632;BME280;58358;50.936;0.246;2024-03-29T02:42:40;97998.71;;;6.38;100.00
64632;BME280;58358;50.936;0.246;2024-03-29T02:45:07;98002.16;;;5.93;100.00
64632;BME280;58358;50.936;0.246;2024-03-29T02:47:32;98004.86;;;5.95;100.00
64632;BME280;58358;50.936;0.246;2024-03-29T02:49:58;98011.73;;;5.13;100.00
64632;BME280;58358;50.936;0.246;2024-03-29T02:52:23;98012.34;;;5.01;100.00
64632;BME280;58358;50.936;0.246;2024-03-29T02:54:49;98017.39;;;5.26;100.00
64632;BME280;58358;50.936;0.246;2024-03-29T02:57:15;98013.94;;;4.80;100.00
64632;BME280;58358;50.936;0.246;2024-03-29T02:59:41;98020.48;;;5.95;100.00
64632;BME280;58358;50.936;0.246;2024-03-29T03:02:06;98017.48;;;5.98;100.00
64632;BME280;58358;50.936;0.246;2024-03-29T03:04:32;98022.00;;;6.04;100.00
64632;BME280;58358;50.936;0.246;2024-03-29T03:06:57;98027.55;;;5.50;100.00
64632;BME280;58358;50.936;0.246;2024-03-29T03:09:23;98026.19;;;5.08;100.00
64632;BME280;58358;50.936;0.246;2024-03-29T03:11:54;98032.92;;;5.76;100.00
64632;BME280;58358;50.936;0.246;2024-03-29T03:14:15;98037.93;;;4.62;100.00
64632;BME280;58358;50.936;0.246;2024-03-29T03:16:41;98038.69;;;4.86;100.00
64632;BME280;58358;50.936;0.246;2024-03-29T03:19:07;98042.19;;;4.76;100.00
64632;BME280;58358;50.936;0.246;2024-03-29T03:21:32;98051.93;;;4.98;100.00
64632;BME280;58358;50.936;0.246;2024-03-29T03:23:58;98052.19;;;5.18;100.00
64632;BME280;58358;50.936;0.246;2024-03-29T03:26:24;98050.06;;;4.95;100.00
64632;BME280;58358;50.936;0.246;2024-03-29T03:28:49;98050.02;;;5.56;100.00
64632;BME280;58358;50.936;0.246;2024-03-29T03:31:15;98048.54;;;5.28;100.00
64632;BME280;58358;50.936;0.246;2024-03-29T03:33:41;98050.92;;;5.37;100.00
64632;BME280;58358;50.936;0.246;2024-03-29T03:36:08;98048.05;;;5.84;100.00
64632;BME280;58358;50.936;0.246;2024-03-29T03:38:33;98053.66;;;5.83;100.00
64632;BME280;58358;50.936;0.246;2024-03-29T03:40:58;98049.14;;;5.96;100.00
64632;BME280;58358;50.936;0.246;2024-03-29T03:43:25;98053.29;;;5.06;100.00
64632;BME280;58358;50.936;0.246;2024-03-29T03:45:50;98052.48;;;5.56;100.00
64632;BME280;58358;50.936;0.246;2024-03-29T03:48:16;98053.01;;;4.77;100.00
64632;BME280;58358;50.936;0.246;2024-03-29T03:50:42;98051.73;;;5.41;100.00
64632;BME280;58358;50.936;0.246;2024-03-29T03:53:08;98042.43;;;5.38;100.00
64632;BME280;58358;50.936;0.246;2024-03-29T03:55:36;98049.33;;;5.79;100.00
64632;BME280;58358;50.936;0.246;2024-03-29T03:58:00;98050.18;;;5.63;100.00
64632;BME280;58358;50.936;0.246;2024-03-29T04:00:25;98053.20;;;5.51;100.00
64632;BME280;58358;50.936;0.246;2024-03-29T04:02:51;98048.99;;;4.51;100.00
64632;BME280;58358;50.936;0.246;2024-03-29T04:05:17;98051.12;;;4.80;100.00
64632;BME280;58358;50.936;0.246;2024-03-29T04:07:42;98054.03;;;5.31;100.00
64632;BME280;58358;50.936;0.246;2024-03-29T04:10:09;98047.76;;;4.92;100.00
64632;BME280;58358;50.936;0.246;2024-03-29T04:12:34;98046.32;;;5.78;100.00
64632;BME280;58358;50.936;0.246;2024-03-29T04:14:59;98056.95;;;5.60;100.00
64632;BME280;58358;50.936;0.246;2024-03-29T04:17:25;98053.25;;;6.09;100.00
64632;BME280;58358;50.936;0.246;2024-03-29T04:19:51;98060.41;;;5.57;100.00
64632;BME280;58358;50.936;0.246;2024-03-29T04:22:16;98057.30;;;5.96;100.00
64632;BME280;58358;50.936;0.246;2024-03-29T04:24:42;98057.85;;;5.92;100.00
64632;BME280;58358;50.936;0.246;2024-03-29T04:27:08;98057.75;;;6.23;100.00
64632;BME280;58358;50.936;0.246;2024-03-29T04:29:34;98063.34;;;6.02;100.00
64632;BME280;58358;50.936;0.246;2024-03-29T04:31:59;98069.34;;;5.94;100.00
64632;BME280;58358;50.936;0.246;2024-03-29T04:34:25;98069.71;;;5.65;100.00
64632;BME280;58358;50.936;0.246;2024-03-29T04:36:51;98070.48;;;5.33;100.00
64632;BME280;58358;50.936;0.246;2024-03-29T04:39:17;98071.66;;;5.59;100.00
64632;BME280;58358;50.936;0.246;2024-03-29T04:41:43;98071.99;;;5.94;100.00
64632;BME280;58358;50.936;0.246;2024-03-29T04:44:11;98077.11;;;5.61;100.00
64632;BME280;58358;50.936;0.246;2024-03-29T04:46:34;98075.30;;;5.65;100.00
64632;BME280;58358;50.936;0.246;2024-03-29T04:49:00;98075.06;;;5.12;100.00
64632;BME280;58358;50.936;0.246;2024-03-29T04:51:26;98080.33;;;4.46;100.00
64632;BME280;58358;50.936;0.246;2024-03-29T04:53:52;98072.56;;;3.95;100.00
64632;BME280;58358;50.936;0.246;2024-03-29T04:56:17;98073.78;;;5.12;100.00
64632;BME280;58358;50.936;0.246;2024-03-29T04:58:43;98077.34;;;5.09;100.00
64632;BME280;58358;50.936;0.246;2024-03-29T05:01:09;98078.60;;;5.45;100.00
64632;BME280;58358;50.936;0.246;2024-03-29T05:03:35;98075.50;;;5.71;100.00
64632;BME280;58358;50.936;0.246;2024-03-29T05:06:01;98072.35;;;5.48;100.00
64632;BME280;58358;50.936;0.246;2024-03-29T05:08:26;98074.76;;;5.01;100.00
64632;BME280;58358;50.936;0.246;2024-03-29T05:10:52;98076.55;;;4.63;100.00
64632;BME280;58358;50.936;0.246;2024-03-29T05:13:18;98091.36;;;5.41;100.00
64632;BME280;58358;50.936;0.246;2024-03-29T05:15:44;98084.23;;;5.54;100.00
64632;BME280;58358;50.936;0.246;2024-03-29T05:18:10;98088.79;;;6.17;100.00
64632;BME280;58358;50.936;0.246;2024-03-29T05:20:35;98082.37;;;5.36;100.00
64632;BME280;58358;50.936;0.246;2024-03-29T05:23:01;98078.80;;;5.50;100.00
64632;BME280;58358;50.936;0.246;2024-03-29T05:25:27;98085.21;;;4.84;100.00
64632;BME280;58358;50.936;0.246;2024-03-29T05:27:53;98091.31;;;4.73;100.00
64632;BME280;58358;50.936;0.246;2024-03-29T05:30:18;98096.95;;;5.54;100.00
64632;BME280;58358;50.936;0.246;2024-03-29T05:32:44;98096.61;;;5.26;100.00
64632;BME280;58358;50.936;0.246;2024-03-29T05:35:10;98100.77;;;5.15;100.00
64632;BME280;58358;50.936;0.246;2024-03-29T05:37:36;98102.40;;;5.96;100.00
64632;BME280;58358;50.936;0.246;2024-03-29T05:40:02;98101.72;;;5.32;100.00
64632;BME280;58358;50.936;0.246;2024-03-29T05:42:28;98105.36;;;6.22;100.00
64632;BME280;58358;50.936;0.246;2024-03-29T05:44:54;98102.75;;;6.24;100.00
64632;BME280;58358;50.936;0.246;2024-03-29T05:47:19;98106.67;;;6.37;100.00
64632;BME280;58358;50.936;0.246;2024-03-29T05:49:45;98115.78;;;6.34;100.00
64632;BME280;58358;50.936;0.246;2024-03-29T05:52:10;98108.78;;;5.51;100.00
64632;BME280;58358;50.936;0.246;2024-03-29T05:54:36;98117.86;;;6.06;100.00
64632;BME280;58358;50.936;0.246;2024-03-29T05:57:02;98118.83;;;5.85;100.00
64632;BME280;58358;50.936;0.246;2024-03-29T05:59:28;98121.78;;;6.13;100.00
64632;BME280;58358;50.936;0.246;2024-03-29T06:01:54;98133.12;;;6.06;100.00
64632;BME280;58358;50.936;0.246;2024-03-29T06:04:19;98135.86;;;5.04;100.00
64632;BME280;58358;50.936;0.246;2024-03-29T06:06:45;98141.58;;;5.24;100.00
64632;BME280;58358;50.936;0.246;2024-03-29T06:09:11;98142.13;;;5.15;100.00
64632;BME280;58358;50.936;0.246;2024-03-29T06:11:38;98135.28;;;5.34;100.00
64632;BME280;58358;50.936;0.246;2024-03-29T06:14:02;98132.23;;;5.86;100.00
64632;BME280;58358;50.936;0.246;2024-03-29T06:16:28;98125.99;;;5.68;100.00
64632;BME280;58358;50.936;0.246;2024-03-29T06:18:54;98126.69;;;5.18;100.00
64632;BME280;58358;50.936;0.246;2024-03-29T06:21:20;98126.52;;;5.38;100.00
64632;BME280;58358;50.936;0.246;2024-03-29T06:23:46;98129.81;;;5.42;100.00
64632;BME280;58358;50.936;0.246;2024-03-29T06:26:11;98125.08;;;4.52;100.00
64632;BME280;58358;50.936;0.246;2024-03-29T06:28:37;98128.33;;;4.40;100.00
64632;BME280;58358;50.936;0.246;2024-03-29T06:31:03;98128.61;;;5.04;100.00
64632;BME280;58358;50.936;0.246;2024-03-29T06:33:29;98125.45;;;5.88;100.00
64632;BME280;58358;50.936;0.246;2024-03-29T06:35:55;98128.48;;;5.88;100.00
64632;BME280;58358;50.936;0.246;2024-03-29T06:38:20;98129.39;;;5.13;100.00
64632;BME280;58358;50.936;0.246;2024-03-29T06:40:46;98135.97;;;5.53;100.00
64632;BME280;58358;50.936;0.246;2024-03-29T06:43:14;98136.53;;;5.07;100.00
64632;BME280;58358;50.936;0.246;2024-03-29T06:45:39;98132.03;;;5.22;100.00
64632;BME280;58358;50.936;0.246;2024-03-29T06:48:04;98136.01;;;5.18;100.00
64632;BME280;58358;50.936;0.246;2024-03-29T06:50:29;98138.90;;;4.58;100.00
64632;BME280;58358;50.936;0.246;2024-03-29T06:52:55;98141.55;;;5.80;100.00
64632;BME280;58358;50.936;0.246;2024-03-29T06:55:21;98143.78;;;5.36;100.00
64632;BME280;58358;50.936;0.246;2024-03-29T06:57:47;98144.67;;;5.41;100.00
64632;BME280;58358;50.936;0.246;2024-03-29T07:00:18;98152.20;;;4.54;100.00
64632;BME280;58358;50.936;0.246;2024-03-29T07:02:38;98155.37;;;4.92;100.00
64632;BME280;58358;50.936;0.246;2024-03-29T07:05:04;98156.12;;;4.92;100.00
64632;BME280;58358;50.936;0.246;2024-03-29T07:07:30;98146.92;;;4.17;100.00
64632;BME280;58358;50.936;0.246;2024-03-29T07:09:56;98143.96;;;5.27;100.00
64632;BME280;58358;50.936;0.246;2024-03-29T07:12:21;98143.61;;;5.44;100.00
64632;BME280;58358;50.936;0.246;2024-03-29T07:14:47;98145.37;;;5.18;100.00
64632;BME280;58358;50.936;0.246;2024-03-29T07:17:13;98143.38;;;5.65;100.00
64632;BME280;58358;50.936;0.246;2024-03-29T07:19:39;98139.22;;;5.44;100.00
64632;BME280;58358;50.936;0.246;2024-03-29T07:22:04;98139.01;;;5.02;100.00
64632;BME280;58358;50.936;0.246;2024-03-29T07:24:30;98143.21;;;5.20;100.00
64632;BME280;58358;50.936;0.246;2024-03-29T07:26:56;98142.22;;;5.79;100.00
64632;BME280;58358;50.936;0.246;2024-03-29T07:29:22;98144.28;;;6.50;100.00
64632;BME280;58358;50.936;0.246;2024-03-29T07:31:47;98141.05;;;6.02;100.00
64632;BME280;58358;50.936;0.246;2024-03-29T07:34:13;98145.66;;;5.21;100.00
64632;BME280;58358;50.936;0.246;2024-03-29T07:36:39;98142.95;;;5.42;100.00
64632;BME280;58358;50.936;0.246;2024-03-29T07:39:05;98145.04;;;5.42;100.00
64632;BME280;58358;50.936;0.246;2024-03-29T07:41:30;98155.17;;;5.97;100.00
64632;BME280;58358;50.936;0.246;2024-03-29T07:43:57;98166.55;;;6.87;100.00
64632;BME280;58358;50.936;0.246;2024-03-29T07:46:22;98167.87;;;5.88;100.00
64632;BME280;58358;50.936;0.246;2024-03-29T07:48:48;98177.38;;;6.08;100.00
64632;BME280;58358;50.936;0.246;2024-03-29T07:51:13;98177.79;;;6.01;100.00
64632;BME280;58358;50.936;0.246;2024-03-29T07:53:39;98179.42;;;6.40;100.00
64632;BME280;58358;50.936;0.246;2024-03-29T07:56:05;98187.96;;;6.51;100.00
64632;BME280;58358;50.936;0.246;2024-03-29T07:58:31;98189.85;;;7.31;100.00
64632;BME280;58358;50.936;0.246;2024-03-29T08:00:57;98181.45;;;6.73;100.00
64632;BME280;58358;50.936;0.246;2024-03-29T08:03:22;98193.78;;;5.79;100.00
64632;BME280;58358;50.936;0.246;2024-03-29T08:05:57;98193.28;;;6.43;100.00
64632;BME280;58358;50.936;0.246;2024-03-29T08:08:14;98197.43;;;7.11;100.00
64632;BME280;58358;50.936;0.246;2024-03-29T08:10:39;98184.59;;;6.06;100.00
64632;BME280;58358;50.936;0.246;2024-03-29T08:13:05;98190.44;;;6.63;100.00
64632;BME280;58358;50.936;0.246;2024-03-29T08:15:31;98185.97;;;7.07;100.00
64632;BME280;58358;50.936;0.246;2024-03-29T08:17:56;98187.25;;;6.45;100.00
64632;BME280;58358;50.936;0.246;2024-03-29T08:20:22;98192.16;;;6.33;100.00
64632;BME280;58358;50.936;0.246;2024-03-29T08:22:48;98198.22;;;6.60;100.00
64632;BME280;58358;50.936;0.246;2024-03-29T08:25:14;98201.67;;;7.37;100.00
64632;BME280;58358;50.936;0.246;2024-03-29T08:27:39;98193.77;;;6.54;100.00
64632;BME280;58358;50.936;0.246;2024-03-29T08:30:07;98191.59;;;6.65;100.00
64632;BME280;58358;50.936;0.246;2024-03-29T08:32:31;98213.28;;;7.24;100.00
64632;BME280;58358;50.936;0.246;2024-03-29T08:34:56;98213.81;;;7.50;100.00
64632;BME280;58358;50.936;0.246;2024-03-29T08:37:22;98215.22;;;6.52;100.00
64632;BME280;58358;50.936;0.246;2024-03-29T08:39:48;98216.25;;;5.84;100.00
64632;BME280;58358;50.936;0.246;2024-03-29T08:42:14;98211.18;;;6.28;100.00
64632;BME280;58358;50.936;0.246;2024-03-29T08:44:39;98214.68;;;5.75;100.00
64632;BME280;58358;50.936;0.246;2024-03-29T08:49:31;98222.37;;;6.77;100.00
64632;BME280;58358;50.936;0.246;2024-03-29T08:51:57;98224.94;;;5.82;100.00
64632;BME280;58358;50.936;0.246;2024-03-29T08:54:22;98225.49;;;6.43;100.00
64632;BME280;58358;50.936;0.246;2024-03-29T08:56:48;98230.08;;;6.27;100.00
64632;BME280;58358;50.936;0.246;2024-03-29T08:59:14;98225.94;;;6.14;100.00
64632;BME280;58358;50.936;0.246;2024-03-29T09:01:42;98238.23;;;6.36;100.00
64632;BME280;58358;50.936;0.246;2024-03-29T09:04:05;98231.22;;;6.58;100.00
64632;BME280;58358;50.936;0.246;2024-03-29T09:06:31;98236.76;;;6.45;100.00
64632;BME280;58358;50.936;0.246;2024-03-29T09:08:57;98236.62;;;6.45;100.00
64632;BME280;58358;50.936;0.246;2024-03-29T09:11:23;98236.39;;;6.95;100.00
64632;BME280;58358;50.936;0.246;2024-03-29T09:13:48;98235.98;;;6.62;100.00
64632;BME280;58358;50.936;0.246;2024-03-29T09:16:15;98235.11;;;7.34;100.00
64632;BME280;58358;50.936;0.246;2024-03-29T09:18:40;98230.49;;;6.87;100.00
64632;BME280;58358;50.936;0.246;2024-03-29T09:21:05;98230.19;;;6.73;100.00
64632;BME280;58358;50.936;0.246;2024-03-29T09:23:31;98239.25;;;6.15;100.00
64632;BME280;58358;50.936;0.246;2024-03-29T09:25:57;98245.00;;;6.55;100.00
64632;BME280;58358;50.936;0.246;2024-03-29T09:28:23;98249.09;;;6.06;100.00
64632;BME280;58358;50.936;0.246;2024-03-29T09:30:49;98253.89;;;6.48;100.00
64632;BME280;58358;50.936;0.246;2024-03-29T09:33:14;98262.24;;;6.44;100.00
64632;BME280;58358;50.936;0.246;2024-03-29T09:35:40;98260.03;;;6.05;100.00
64632;BME280;58358;50.936;0.246;2024-03-29T09:38:06;98267.03;;;6.63;100.00
64632;BME280;58358;50.936;0.246;2024-03-29T09:40:32;98264.37;;;6.68;100.00
64632;BME280;58358;50.936;0.246;2024-03-29T09:43:00;98277.96;;;6.57;100.00
64632;BME280;58358;50.936;0.246;2024-03-29T09:45:23;98270.67;;;6.13;100.00
64632;BME280;58358;50.936;0.246;2024-03-29T09:47:50;98273.20;;;6.73;100.00
64632;BME280;58358;50.936;0.246;2024-03-29T09:50:15;98271.18;;;6.40;100.00
64632;BME280;58358;50.936;0.246;2024-03-29T09:52:40;98273.91;;;6.76;100.00
64632;BME280;58358;50.936;0.246;2024-03-29T09:55:08;98271.92;;;6.99;100.00
64632;BME280;58358;50.936;0.246;2024-03-29T09:57:32;98268.64;;;7.26;100.00
64632;BME280;58358;50.936;0.246;2024-03-29T09:59:57;98262.69;;;7.01;100.00
64632;BME280;58358;50.936;0.246;2024-03-29T10:02:28;98270.02;;;7.93;100.00
64632;BME280;58358;50.936;0.246;2024-03-29T10:04:50;98272.16;;;7.54;100.00
64632;BME280;58358;50.936;0.246;2024-03-29T10:07:15;98269.56;;;7.04;100.00
64632;BME280;58358;50.936;0.246;2024-03-29T10:09:40;98272.95;;;6.08;100.00
64632;BME280;58358;50.936;0.246;2024-03-29T10:12:06;98278.05;;;6.59;100.00
64632;BME280;58358;50.936;0.246;2024-03-29T10:14:32;98278.71;;;6.79;100.00
64632;BME280;58358;50.936;0.246;2024-03-29T10:16:58;98278.48;;;7.61;100.00
64632;BME280;58358;50.936;0.246;2024-03-29T10:19:23;98273.98;;;6.98;100.00
64632;BME280;58358;50.936;0.246;2024-03-29T10:21:49;98274.31;;;7.85;100.00
64632;BME280;58358;50.936;0.246;2024-03-29T10:24:16;98276.84;;;7.58;100.00
64632;BME280;58358;50.936;0.246;2024-03-29T10:26:40;98268.25;;;7.57;100.00
64632;BME280;58358;50.936;0.246;2024-03-29T10:29:06;98275.81;;;8.43;100.00
64632;BME280;58358;50.936;0.246;2024-03-29T10:31:34;98276.16;;;8.44;100.00
64632;BME280;58358;50.936;0.246;2024-03-29T10:34:03;98264.30;;;7.87;100.00
64632;BME280;58358;50.936;0.246;2024-03-29T10:36:25;98270.92;;;7.73;100.00
64632;BME280;58358;50.936;0.246;2024-03-29T10:38:49;98283.96;;;8.46;100.00
64632;BME280;58358;50.936;0.246;2024-03-29T10:41:15;98284.30;;;9.07;100.00
64632;BME280;58358;50.936;0.246;2024-03-29T10:43:40;98284.88;;;7.96;100.00
64632;BME280;58358;50.936;0.246;2024-03-29T10:46:06;98297.05;;;8.72;100.00
64632;BME280;58358;50.936;0.246;2024-03-29T10:48:31;98274.73;;;7.93;100.00
64632;BME280;58358;50.936;0.246;2024-03-29T10:50:58;98287.71;;;8.26;100.00
64632;BME280;58358;50.936;0.246;2024-03-29T10:53:23;98286.16;;;8.81;100.00
64632;BME280;58358;50.936;0.246;2024-03-29T10:55:53;98281.22;;;9.30;100.00
64632;BME280;58358;50.936;0.246;2024-03-29T10:58:15;98289.65;;;8.29;100.00
64632;BME280;58358;50.936;0.246;2024-03-29T11:00:45;98305.44;;;8.70;100.00
64632;BME280;58358;50.936;0.246;2024-03-29T11:03:13;98301.43;;;8.32;100.00
64632;BME280;58358;50.936;0.246;2024-03-29T11:05:32;98301.39;;;9.58;100.00
64632;BME280;58358;50.936;0.246;2024-03-29T11:07:56;98307.99;;;9.77;100.00
64632;BME280;58358;50.936;0.246;2024-03-29T11:10:29;98317.51;;;9.01;100.00
64632;BME280;58358;50.936;0.246;2024-03-29T11:12:58;98312.34;;;9.06;100.00
64632;BME280;58358;50.936;0.246;2024-03-29T11:15:19;98314.74;;;8.29;100.00
64632;BME280;58358;50.936;0.246;2024-03-29T11:17:38;98317.62;;;8.51;100.00
64632;BME280;58358;50.936;0.246;2024-03-29T11:20:05;98313.69;;;8.88;100.00
64632;BME280;58358;50.936;0.246;2024-03-29T11:22:30;98313.05;;;8.60;100.00
64632;BME280;58358;50.936;0.246;2024-03-29T11:27:23;98308.59;;;8.17;100.00
64632;BME280;58358;50.936;0.246;2024-03-29T11:29:47;98304.62;;;8.56;100.00
64632;BME280;58358;50.936;0.246;2024-03-29T11:32:14;98307.08;;;9.16;100.00
64632;BME280;58358;50.936;0.246;2024-03-29T11:34:43;98314.70;;;9.67;100.00
64632;BME280;58358;50.936;0.246;2024-03-29T11:37:07;98312.74;;;8.88;100.00
64632;BME280;58358;50.936;0.246;2024-03-29T11:39:29;98302.55;;;8.26;100.00
64632;BME280;58358;50.936;0.246;2024-03-29T11:42:00;98307.30;;;9.21;100.00
64632;BME280;58358;50.936;0.246;2024-03-29T11:44:20;98303.33;;;9.16;100.00
64632;BME280;58358;50.936;0.246;2024-03-29T11:46:47;98317.18;;;9.40;100.00
64632;BME280;58358;50.936;0.246;2024-03-29T11:49:12;98313.49;;;9.04;100.00
64632;BME280;58358;50.936;0.246;2024-03-29T11:51:37;98319.02;;;9.46;100.00
64632;BME280;58358;50.936;0.246;2024-03-29T11:54:03;98316.87;;;9.46;100.00
64632;BME280;58358;50.936;0.246;2024-03-29T11:56:29;98320.71;;;9.57;100.00
64632;BME280;58358;50.936;0.246;2024-03-29T11:58:54;98313.36;;;8.68;100.00
64632;BME280;58358;50.936;0.246;2024-03-29T12:01:20;98326.63;;;9.41;100.00
64632;BME280;58358;50.936;0.246;2024-03-29T12:03:46;98327.29;;;9.44;100.00
64632;BME280;58358;50.936;0.246;2024-03-29T12:06:12;98333.05;;;9.78;100.00
64632;BME280;58358;50.936;0.246;2024-03-29T12:08:39;98335.59;;;9.33;100.00
64632;BME280;58358;50.936;0.246;2024-03-29T12:11:03;98335.62;;;8.79;100.00
64632;BME280;58358;50.936;0.246;2024-03-29T12:13:29;98330.10;;;9.16;100.00
64632;BME280;58358;50.936;0.246;2024-03-29T12:15:55;98335.69;;;9.14;100.00
64632;BME280;58358;50.936;0.246;2024-03-29T12:18:21;98338.56;;;9.27;100.00
64632;BME280;58358;50.936;0.246;2024-03-29T12:20:45;98339.70;;;8.97;100.00
64632;BME280;58358;50.936;0.246;2024-03-29T12:23:11;98347.37;;;8.54;100.00
64632;BME280;58358;50.936;0.246;2024-03-29T12:25:37;98340.74;;;9.53;100.00
64632;BME280;58358;50.936;0.246;2024-03-29T12:28:03;98349.43;;;8.34;100.00
64632;BME280;58358;50.936;0.246;2024-03-29T12:30:29;98348.13;;;9.04;100.00
64632;BME280;58358;50.936;0.246;2024-03-29T12:33:02;98350.92;;;9.52;100.00
64632;BME280;58358;50.936;0.246;2024-03-29T12:35:21;98354.25;;;8.08;100.00
64632;BME280;58358;50.936;0.246;2024-03-29T12:37:49;98360.90;;;8.64;100.00
64632;BME280;58358;50.936;0.246;2024-03-29T12:40:11;98360.78;;;8.87;100.00
64632;BME280;58358;50.936;0.246;2024-03-29T12:42:37;98360.89;;;9.35;100.00
64632;BME280;58358;50.936;0.246;2024-03-29T12:45:03;98366.99;;;10.13;100.00
64632;BME280;58358;50.936;0.246;2024-03-29T12:47:28;98377.17;;;9.35;100.00
64632;BME280;58358;50.936;0.246;2024-03-29T12:49:53;98376.74;;;8.57;100.00
64632;BME280;58358;50.936;0.246;2024-03-29T12:52:19;98379.25;;;9.10;100.00
64632;BME280;58358;50.936;0.246;2024-03-29T12:54:44;98378.75;;;10.09;100.00
64632;BME280;58358;50.936;0.246;2024-03-29T12:57:10;98378.30;;;10.19;100.00